createdAt,value
2022-07-26T00:02:04.115Z,19.00
2022-07-26T00:04:33.052Z,19.10
2022-07-26T00:07:02.094Z,18.90
2022-07-26T00:09:32.060Z,18.90
2022-07-26T00:12:01.284Z,18.80
2022-07-26T00:14:32.098Z,18.80
2022-07-26T00:17:00.180Z,18.70
2022-07-26T00:19:39.661Z,18.60
2022-07-26T00:22:07.985Z,18.50
2022-07-26T00:24:38.164Z,18.50
2022-07-26T00:27:14.911Z,18.40
2022-07-26T00:29:47.435Z,18.40
2022-07-26T00:32:15.661Z,18.40
2022-07-26T00:34:44.208Z,18.40
2022-07-26T00:37:22.039Z,18.40
2022-07-26T00:40:02.481Z,18.50
2022-07-26T00:42:30.614Z,18.50
2022-07-26T00:44:57.734Z,18.60
2022-07-26T00:47:34.136Z,18.60
2022-07-26T00:50:10.677Z,18.60
2022-07-26T00:52:39.934Z,18.70
2022-07-26T00:55:21.116Z,18.70
2022-07-26T00:57:59.739Z,18.70
2022-07-26T01:00:33.742Z,18.70
2022-07-26T01:03:11.104Z,18.80
2022-07-26T01:05:39.345Z,18.80
2022-07-26T01:08:16.084Z,18.80
2022-07-26T01:10:49.942Z,18.90
2022-07-26T01:13:21.688Z,18.80
2022-07-26T01:15:52.058Z,18.90
2022-07-26T01:18:28.604Z,18.90
2022-07-26T01:21:16.068Z,18.80
2022-07-26T01:23:51.580Z,18.90
2022-07-26T01:26:20.162Z,18.90
2022-07-26T01:28:58.612Z,18.90
2022-07-26T01:31:27.838Z,18.80
2022-07-26T01:33:57.343Z,18.80
2022-07-26T01:36:31.042Z,18.80
2022-07-26T01:39:01.235Z,18.80
2022-07-26T01:41:37.225Z,18.80
2022-07-26T01:44:15.404Z,18.80
2022-07-26T01:46:51.788Z,18.80
2022-07-26T01:49:22.564Z,18.80
2022-07-26T01:51:58.886Z,18.90
2022-07-26T01:54:29.160Z,18.80
2022-07-26T01:57:05.428Z,18.90
2022-07-26T01:59:36.769Z,18.80
2022-07-26T02:02:06.581Z,18.90
2022-07-26T02:04:38.461Z,18.90
2022-07-26T02:07:13.889Z,18.90
2022-07-26T02:09:44.473Z,18.90
2022-07-26T02:12:15.824Z,18.80
2022-07-26T02:14:48.935Z,18.80
2022-07-26T02:17:19.338Z,18.90
2022-07-26T02:19:48.465Z,18.90
2022-07-26T02:22:15.166Z,18.90
2022-07-26T02:24:43.522Z,18.80
2022-07-26T02:27:11.620Z,18.80
2022-07-26T02:29:41.877Z,18.80
2022-07-26T02:32:13.237Z,18.80
2022-07-26T02:34:42.040Z,18.80
2022-07-26T02:37:17.604Z,18.80
2022-07-26T02:39:48.590Z,18.80
2022-07-26T02:42:26.457Z,18.70
2022-07-26T02:44:56.475Z,18.80
2022-07-26T02:47:26.484Z,18.80
2022-07-26T02:49:56.438Z,18.70
2022-07-26T02:52:25.175Z,18.60
2022-07-26T02:54:55.720Z,18.70
2022-07-26T02:57:26.948Z,18.60
2022-07-26T02:59:55.273Z,18.70
2022-07-26T03:02:31.624Z,18.70
2022-07-26T03:05:01.530Z,18.70
2022-07-26T03:07:31.857Z,18.70
2022-07-26T03:10:01.022Z,18.60
2022-07-26T03:12:29.102Z,18.60
2022-07-26T03:14:55.994Z,18.50
2022-07-26T03:17:26.051Z,18.50
2022-07-26T03:19:56.259Z,18.60
2022-07-26T03:22:26.747Z,18.50
2022-07-26T03:24:56.469Z,18.50
2022-07-26T03:27:26.786Z,18.50
2022-07-26T03:29:55.568Z,18.50
2022-07-26T03:32:25.543Z,18.50
2022-07-26T03:34:54.924Z,18.50
2022-07-26T03:37:45.159Z,18.60
2022-07-26T03:40:29.053Z,18.50
2022-07-26T03:42:57.998Z,18.40
2022-07-26T03:45:25.715Z,18.40
2022-07-26T03:47:56.055Z,18.40
2022-07-26T03:50:26.044Z,18.40
2022-07-26T03:52:56.060Z,18.40
2022-07-26T03:55:25.704Z,18.40
2022-07-26T03:57:56.602Z,18.40
2022-07-26T04:00:26.455Z,18.40
2022-07-26T04:02:53.315Z,18.40
2022-07-26T04:05:26.151Z,18.30
2022-07-26T04:07:56.351Z,18.30
2022-07-26T04:10:26.336Z,18.20
2022-07-26T04:13:02.921Z,18.20
2022-07-26T04:15:34.642Z,18.20
2022-07-26T04:18:02.833Z,18.10
2022-07-26T04:20:38.918Z,18.10
2022-07-26T04:23:12.764Z,18.20
2022-07-26T04:25:49.764Z,18.10
2022-07-26T04:28:19.392Z,18.10
2022-07-26T04:30:49.865Z,18.10
2022-07-26T04:33:18.218Z,18.10
2022-07-26T04:35:48.360Z,18.20
2022-07-26T04:38:18.552Z,18.20
2022-07-26T04:40:47.934Z,18.20
2022-07-26T04:43:25.774Z,18.20
2022-07-26T04:45:55.010Z,18.20
2022-07-26T04:48:26.134Z,18.10
2022-07-26T04:50:54.987Z,18.10
2022-07-26T04:53:24.938Z,18.20
2022-07-26T04:55:54.170Z,18.20
2022-07-26T04:58:23.304Z,18.20
2022-07-26T05:03:43.458Z,18.30
2022-07-26T05:06:19.845Z,18.20
2022-07-26T05:08:48.575Z,18.20
2022-07-26T05:11:23.933Z,18.30
2022-07-26T05:13:51.734Z,18.20
2022-07-26T05:16:18.781Z,18.30
2022-07-26T05:18:49.592Z,18.30
2022-07-26T05:21:26.399Z,18.40
2022-07-26T05:23:55.637Z,18.40
2022-07-26T05:26:23.839Z,18.40
2022-07-26T05:28:53.811Z,18.40
2022-07-26T05:31:21.092Z,18.40
2022-07-26T05:33:49.806Z,18.50
2022-07-26T05:36:19.046Z,18.50
2022-07-26T05:38:48.743Z,18.50
2022-07-26T05:41:26.529Z,18.50
2022-07-26T05:43:55.599Z,18.50
2022-07-26T05:46:24.351Z,18.60
2022-07-26T05:48:54.652Z,18.60
2022-07-26T05:51:22.874Z,18.60
2022-07-26T05:53:52.115Z,18.70
2022-07-26T05:56:20.040Z,18.60
2022-07-26T05:58:50.253Z,18.60
2022-07-26T06:01:17.171Z,18.60
2022-07-26T06:03:47.728Z,18.70
2022-07-26T06:06:17.063Z,18.80
2022-07-26T06:08:45.577Z,18.80
2022-07-26T06:11:15.942Z,18.80
2022-07-26T06:13:47.216Z,18.70
2022-07-26T06:16:17.095Z,18.60
2022-07-26T06:18:47.290Z,18.50
2022-07-26T06:21:23.407Z,18.50
2022-07-26T06:23:58.889Z,18.60
2022-07-26T06:26:27.126Z,18.60
2022-07-26T06:28:57.707Z,18.50
2022-07-26T06:31:35.036Z,18.50
2022-07-26T06:34:11.900Z,18.50
2022-07-26T06:36:46.617Z,18.50
2022-07-26T06:39:15.658Z,18.50
2022-07-26T06:41:46.042Z,18.50
2022-07-26T06:44:22.553Z,18.60
2022-07-26T06:46:59.003Z,18.70
2022-07-26T06:49:28.464Z,18.80
2022-07-26T06:51:55.301Z,18.80
2022-07-26T06:54:26.372Z,18.70
2022-07-26T06:56:56.127Z,18.70
2022-07-26T06:59:26.339Z,18.60
2022-07-26T07:01:59.977Z,18.60
2022-07-26T07:04:30.940Z,18.70
2022-07-26T07:06:58.796Z,18.70
2022-07-26T07:09:28.722Z,18.80
2022-07-26T07:12:02.444Z,18.80
2022-07-26T07:14:43.700Z,18.90
2022-07-26T07:17:18.505Z,19.00
2022-07-26T07:19:50.160Z,19.10
2022-07-26T07:22:21.131Z,19.20
2022-07-26T07:27:31.460Z,19.20
2022-07-26T07:30:09.111Z,19.30
2022-07-26T07:32:45.938Z,19.30
2022-07-26T07:35:13.207Z,19.30
2022-07-26T07:37:53.520Z,19.30
2022-07-26T07:40:30.335Z,19.30
2022-07-26T07:42:59.636Z,19.30
2022-07-26T07:45:27.610Z,19.30
2022-07-26T07:47:56.061Z,19.30
2022-07-26T07:50:35.297Z,19.30
2022-07-26T07:53:05.293Z,19.40
2022-07-26T07:55:46.366Z,19.30
2022-07-26T08:00:48.975Z,19.40
2022-07-26T08:03:19.977Z,19.40
2022-07-26T08:05:51.097Z,19.60
2022-07-26T08:08:27.656Z,19.80
2022-07-26T08:10:55.775Z,19.90
2022-07-26T08:13:28.031Z,20.00
2022-07-26T08:15:56.741Z,20.20
2022-07-26T08:18:27.568Z,20.40
2022-07-26T08:20:59.498Z,20.40
2022-07-26T08:23:29.767Z,20.50
2022-07-26T08:26:03.214Z,20.60
2022-07-26T08:29:08.930Z,20.50
2022-07-26T08:31:29.161Z,20.50
2022-07-26T08:33:58.372Z,20.50
2022-07-26T08:36:32.708Z,20.50
2022-07-26T08:39:04.233Z,20.50
2022-07-26T08:41:34.729Z,20.50
2022-07-26T08:44:09.933Z,20.60
2022-07-26T08:46:40.980Z,20.60
2022-07-26T08:49:11.834Z,20.60
2022-07-26T08:51:55.251Z,20.50
2022-07-26T08:54:23.389Z,20.40
2022-07-26T08:56:56.197Z,20.50
2022-07-26T08:59:27.664Z,20.60
2022-07-26T09:02:07.789Z,20.60
2022-07-26T09:04:45.693Z,20.70
2022-07-26T09:07:26.319Z,20.70
2022-07-26T09:10:13.603Z,20.70
2022-07-26T09:12:43.705Z,20.80
2022-07-26T09:15:29.455Z,20.80
2022-07-26T09:18:05.880Z,20.80
2022-07-26T09:20:33.455Z,20.90
2022-07-26T09:23:11.341Z,20.90
2022-07-26T09:25:54.637Z,21.00
2022-07-26T09:28:25.189Z,21.20
2022-07-26T09:31:04.993Z,21.20
2022-07-26T09:33:53.673Z,21.30
2022-07-26T09:36:23.252Z,21.30
2022-07-26T09:39:00.367Z,21.30
2022-07-26T09:41:44.021Z,21.30
2022-07-26T09:44:26.845Z,21.40
2022-07-26T09:47:06.921Z,21.40
2022-07-26T09:49:40.628Z,21.40
2022-07-26T09:52:23.759Z,21.50
2022-07-26T09:54:52.799Z,21.60
2022-07-26T09:57:22.028Z,21.70
2022-07-26T09:59:56.546Z,21.70
2022-07-26T10:02:24.611Z,21.80
2022-07-26T10:04:54.975Z,21.80
2022-07-26T10:07:28.524Z,21.80
2022-07-26T10:10:04.653Z,22.00
2022-07-26T10:12:44.423Z,22.20
2022-07-26T10:15:34.069Z,22.30
2022-07-26T10:18:07.891Z,22.20
2022-07-26T10:20:43.438Z,22.10
2022-07-26T10:23:48.623Z,22.10
2022-07-26T10:26:36.552Z,22.00
2022-07-26T10:29:26.301Z,22.00
2022-07-26T10:32:16.320Z,22.00
2022-07-26T10:34:44.588Z,22.10
2022-07-26T10:37:26.960Z,22.30
2022-07-26T10:40:25.859Z,22.20
2022-07-26T10:43:42.423Z,22.20
2022-07-26T10:46:26.862Z,22.10
2022-07-26T10:49:06.018Z,22.20
2022-07-26T10:51:40.665Z,22.10
2022-07-26T10:54:16.564Z,22.10
2022-07-26T10:56:46.169Z,22.00
2022-07-26T10:59:13.084Z,21.90
2022-07-26T11:01:52.731Z,21.60
2022-07-26T11:04:25.369Z,21.60
2022-07-26T11:06:59.949Z,21.60
2022-07-26T11:09:37.025Z,21.70
2022-07-26T11:12:21.772Z,21.80
2022-07-26T11:14:50.304Z,21.80
2022-07-26T11:17:30.093Z,21.70
2022-07-26T11:19:58.604Z,21.90
2022-07-26T11:22:41.433Z,21.90
2022-07-26T11:25:09.843Z,21.90
2022-07-26T11:27:59.987Z,22.10
2022-07-26T11:30:30.205Z,22.30
2022-07-26T11:33:00.744Z,22.40
2022-07-26T11:35:37.118Z,22.50
2022-07-26T11:38:12.721Z,22.60
2022-07-26T11:40:51.984Z,22.60
2022-07-26T11:43:22.231Z,22.60
2022-07-26T11:45:55.469Z,22.80
2022-07-26T11:48:32.465Z,22.90
2022-07-26T11:53:57.565Z,23.00
2022-07-26T11:56:26.669Z,22.80
2022-07-26T11:58:57.147Z,22.60
2022-07-26T12:01:34.149Z,22.50
2022-07-26T12:04:05.990Z,22.60
2022-07-26T12:06:39.539Z,22.50
2022-07-26T12:09:08.704Z,22.50
2022-07-26T12:11:42.703Z,22.50
2022-07-26T12:14:14.898Z,22.60
2022-07-26T12:16:50.839Z,22.70
2022-07-26T12:19:29.108Z,22.60
2022-07-26T12:22:13.322Z,22.50
2022-07-26T12:24:54.771Z,22.30
2022-07-26T12:27:36.236Z,22.20
2022-07-26T12:30:15.971Z,21.80
2022-07-26T12:32:46.592Z,21.40
2022-07-26T12:35:33.745Z,20.90
2022-07-26T12:38:04.096Z,20.50
2022-07-26T12:40:41.459Z,20.00
2022-07-26T12:43:11.801Z,19.40
2022-07-26T12:45:47.917Z,19.10
2022-07-26T12:48:24.398Z,18.60
2022-07-26T12:50:54.431Z,18.00
2022-07-26T12:53:23.053Z,17.50
2022-07-26T12:55:51.543Z,17.30
2022-07-26T12:58:19.554Z,17.20
2022-07-26T13:00:48.776Z,17.10
2022-07-26T13:03:17.000Z,17.10
2022-07-26T13:05:44.960Z,17.00
2022-07-26T13:08:15.077Z,16.90
2022-07-26T13:10:45.946Z,16.90
2022-07-26T13:13:14.242Z,16.90
2022-07-26T13:15:43.129Z,16.90
2022-07-26T13:18:13.252Z,16.80
2022-07-26T13:20:43.555Z,16.80
2022-07-26T13:23:21.444Z,16.80
2022-07-26T13:25:51.504Z,16.90
2022-07-26T13:28:21.872Z,17.00
2022-07-26T13:30:51.210Z,17.10
2022-07-26T13:33:19.035Z,17.10
2022-07-26T13:35:50.349Z,17.10
2022-07-26T13:38:29.595Z,17.10
2022-07-26T13:40:59.291Z,17.20
2022-07-26T13:43:31.186Z,17.20
2022-07-26T13:46:09.049Z,17.40
2022-07-26T13:48:48.124Z,17.60
2022-07-26T13:51:31.428Z,17.80
2022-07-26T13:54:01.182Z,17.90
2022-07-26T13:56:28.084Z,18.00
2022-07-26T13:58:58.440Z,18.00
2022-07-26T14:01:43.579Z,18.00
2022-07-26T14:04:16.486Z,18.00
2022-07-26T14:06:46.441Z,17.90
2022-07-26T14:09:15.262Z,17.90
2022-07-26T14:11:43.612Z,18.10
2022-07-26T14:14:11.552Z,18.20
2022-07-26T14:16:45.603Z,18.20
2022-07-26T14:19:27.487Z,18.30
2022-07-26T14:21:59.516Z,18.50
2022-07-26T14:24:42.003Z,18.50
2022-07-26T14:27:12.290Z,18.60
2022-07-26T14:29:43.259Z,18.50
2022-07-26T14:32:18.044Z,18.70
2022-07-26T14:34:51.479Z,18.80
2022-07-26T14:37:41.455Z,19.00
2022-07-26T14:40:10.167Z,19.20
2022-07-26T14:42:51.911Z,19.40
2022-07-26T14:45:19.934Z,19.50
2022-07-26T14:47:48.962Z,19.50
2022-07-26T14:50:16.180Z,19.50
2022-07-26T14:53:06.742Z,19.70
2022-07-26T14:55:36.826Z,19.80
2022-07-26T14:58:08.517Z,20.00
2022-07-26T15:00:37.678Z,20.10
2022-07-26T15:03:09.429Z,19.90
2022-07-26T15:05:37.751Z,19.80
2022-07-26T15:08:06.319Z,19.80
2022-07-26T15:10:39.526Z,19.70
2022-07-26T15:13:09.332Z,19.60
2022-07-26T15:15:39.150Z,19.80
2022-07-26T15:18:06.570Z,19.80
2022-07-26T15:20:39.189Z,20.00
2022-07-26T15:23:08.990Z,20.20
2022-07-26T15:25:46.189Z,20.60
2022-07-26T15:28:17.987Z,20.60
2022-07-26T15:30:49.890Z,20.30
2022-07-26T15:33:18.075Z,20.20
2022-07-26T15:35:53.622Z,20.30
2022-07-26T15:38:24.396Z,20.40
2022-07-26T15:40:54.820Z,20.40
2022-07-26T15:43:48.181Z,20.60
2022-07-26T15:46:18.656Z,20.80
2022-07-26T15:48:50.237Z,21.00
2022-07-26T15:51:20.910Z,21.20
2022-07-26T15:53:58.306Z,21.50
2022-07-26T15:56:28.256Z,21.60
2022-07-26T15:58:56.461Z,22.00
2022-07-26T16:01:26.502Z,22.00
2022-07-26T16:03:58.212Z,22.00
2022-07-26T16:06:34.547Z,21.80
2022-07-26T16:09:17.701Z,21.50
2022-07-26T16:11:53.326Z,21.40
2022-07-26T16:14:22.759Z,21.40
2022-07-26T16:16:59.377Z,21.10
2022-07-26T16:19:29.864Z,21.10
2022-07-26T16:22:06.972Z,21.10
2022-07-26T16:24:38.278Z,21.10
2022-07-26T16:27:09.000Z,21.10
2022-07-26T16:29:37.707Z,21.20
2022-07-26T16:32:07.093Z,21.40
2022-07-26T16:34:36.960Z,21.50
2022-07-26T16:37:11.088Z,21.70
2022-07-26T16:39:47.414Z,21.70
2022-07-26T16:42:16.488Z,21.90
2022-07-26T16:44:45.994Z,21.90
2022-07-26T16:47:14.317Z,21.80
2022-07-26T16:49:42.639Z,21.80
2022-07-26T16:52:11.704Z,21.70
2022-07-26T16:54:40.740Z,21.80
2022-07-26T16:57:07.689Z,21.80
2022-07-26T16:59:38.521Z,21.90
2022-07-26T17:02:07.355Z,22.00
2022-07-26T17:04:43.701Z,22.10
2022-07-26T17:07:25.503Z,22.20
2022-07-26T17:10:01.963Z,22.20
2022-07-26T17:12:33.125Z,22.30
2022-07-26T17:15:03.372Z,22.30
2022-07-26T17:17:31.151Z,22.10
2022-07-26T17:20:00.571Z,22.00
2022-07-26T17:22:29.005Z,22.20
2022-07-26T17:24:59.650Z,22.30
2022-07-26T17:27:28.031Z,22.60
2022-07-26T17:29:56.246Z,22.60
2022-07-26T17:32:36.932Z,22.40
2022-07-26T17:35:09.027Z,22.30
2022-07-26T17:37:39.966Z,22.00
2022-07-26T17:40:16.541Z,21.70
2022-07-26T17:42:47.201Z,21.70
2022-07-26T17:45:17.674Z,21.60
2022-07-26T17:47:47.921Z,21.60
2022-07-26T17:50:36.094Z,21.60
2022-07-26T17:53:07.622Z,21.50
2022-07-26T17:55:36.699Z,21.40
2022-07-26T17:58:04.086Z,21.40
2022-07-26T18:00:33.953Z,21.30
2022-07-26T18:03:04.210Z,21.40
2022-07-26T18:05:39.512Z,21.30
2022-07-26T18:08:11.207Z,21.20
2022-07-26T18:10:40.911Z,21.40
2022-07-26T18:13:11.238Z,21.50
2022-07-26T18:15:41.065Z,21.50
2022-07-26T18:18:10.136Z,21.40
2022-07-26T18:20:47.445Z,21.30
2022-07-26T18:23:25.981Z,21.20
2022-07-26T18:25:52.715Z,21.00
2022-07-26T18:28:22.560Z,20.90
2022-07-26T18:30:59.108Z,20.60
2022-07-26T18:33:31.637Z,20.60
2022-07-26T18:36:09.700Z,20.50
2022-07-26T18:38:37.997Z,20.50
2022-07-26T18:41:07.811Z,20.40
2022-07-26T18:43:36.759Z,20.30
2022-07-26T18:46:06.394Z,20.20
2022-07-26T18:48:35.718Z,20.30
2022-07-26T18:51:05.579Z,20.20
2022-07-26T18:53:37.708Z,20.20
2022-07-26T18:56:08.201Z,20.00
2022-07-26T19:01:20.292Z,19.90
2022-07-26T19:03:47.473Z,19.80
2022-07-26T19:06:20.095Z,19.70
2022-07-26T19:08:47.310Z,19.70
2022-07-26T19:11:15.640Z,19.60
2022-07-26T19:13:44.691Z,19.50
2022-07-26T19:16:12.792Z,19.50
2022-07-26T19:18:52.700Z,19.50
2022-07-26T19:21:26.075Z,19.40
2022-07-26T19:23:57.717Z,19.30
2022-07-26T19:26:28.024Z,19.30
2022-07-26T19:28:58.009Z,19.20
2022-07-26T19:31:26.662Z,19.20
2022-07-26T19:33:57.093Z,19.10
2022-07-26T19:36:26.614Z,19.10
2022-07-26T19:38:55.359Z,19.10
2022-07-26T19:41:27.077Z,19.10
2022-07-26T19:43:56.438Z,19.00
2022-07-26T19:46:27.221Z,19.00
2022-07-26T19:49:04.491Z,19.00
2022-07-26T19:51:44.244Z,18.90
2022-07-26T19:54:14.329Z,18.90
2022-07-26T19:56:45.241Z,18.80
2022-07-26T19:59:23.639Z,18.80
2022-07-26T20:01:53.346Z,18.70
2022-07-26T20:04:24.842Z,18.70
2022-07-26T20:06:55.361Z,18.70
2022-07-26T20:09:24.163Z,18.60
2022-07-26T20:11:54.518Z,18.60
2022-07-26T20:14:25.865Z,18.60
2022-07-26T20:16:56.057Z,18.60
2022-07-26T20:19:25.152Z,18.60
2022-07-26T20:21:53.498Z,18.50
2022-07-26T20:24:29.487Z,18.50
2022-07-26T20:26:58.968Z,18.40
2022-07-26T20:29:29.420Z,18.40
2022-07-26T20:32:00.349Z,18.40
2022-07-26T20:34:27.319Z,18.40
2022-07-26T20:36:56.389Z,18.30
2022-07-26T20:39:26.611Z,18.30
2022-07-26T20:41:57.387Z,18.20
2022-07-26T20:44:33.139Z,18.20
2022-07-26T20:47:10.292Z,18.20
2022-07-26T20:49:38.824Z,18.20
2022-07-26T20:52:09.747Z,18.20
2022-07-26T20:54:38.629Z,18.20
2022-07-26T20:57:12.403Z,18.10
2022-07-26T20:59:40.865Z,18.00
2022-07-26T21:02:11.215Z,18.10
2022-07-26T21:04:40.279Z,18.10
2022-07-26T21:07:08.172Z,18.00
2022-07-26T21:09:38.402Z,17.90
2022-07-26T21:12:15.293Z,17.90
2022-07-26T21:14:43.363Z,17.90
2022-07-26T21:17:13.701Z,17.80
2022-07-26T21:19:50.083Z,17.80
2022-07-26T21:22:16.836Z,17.80
2022-07-26T21:24:48.412Z,17.80
2022-07-26T21:27:18.769Z,17.70
2022-07-26T21:29:46.736Z,17.70
2022-07-26T21:32:14.880Z,17.70
2022-07-26T21:34:51.252Z,17.60
2022-07-26T21:37:21.651Z,17.60
2022-07-26T21:39:51.306Z,17.50
2022-07-26T21:42:20.118Z,17.50
2022-07-26T21:44:50.302Z,17.40
2022-07-26T21:47:18.569Z,17.40
2022-07-26T21:49:46.618Z,17.50
2022-07-26T21:52:14.472Z,17.50
2022-07-26T21:54:44.454Z,17.40
2022-07-26T21:57:15.551Z,17.40
2022-07-26T21:59:46.368Z,17.30
2022-07-26T22:02:20.577Z,17.20
2022-07-26T22:04:50.197Z,17.30
2022-07-26T22:07:18.623Z,17.30
2022-07-26T22:09:47.836Z,17.30
2022-07-26T22:12:17.868Z,17.30
2022-07-26T22:14:53.973Z,17.20
2022-07-26T22:17:23.173Z,17.30
2022-07-26T22:19:51.896Z,17.20
2022-07-26T22:22:24.360Z,17.20
2022-07-26T22:25:00.580Z,17.20
2022-07-26T22:27:28.385Z,17.20
2022-07-26T22:29:56.511Z,17.20
2022-07-26T22:32:28.478Z,17.10
2022-07-26T22:34:56.239Z,17.10
2022-07-26T22:37:27.868Z,17.00
2022-07-26T22:39:55.898Z,17.00
2022-07-26T22:42:24.352Z,17.00
2022-07-26T22:44:54.593Z,16.90
2022-07-26T22:47:23.288Z,16.90
2022-07-26T22:49:52.759Z,17.00
2022-07-26T22:52:29.293Z,17.00
2022-07-26T22:54:58.167Z,16.90
2022-07-26T22:57:29.320Z,16.90
2022-07-26T23:00:01.457Z,16.90
2022-07-26T23:02:28.107Z,16.80
2022-07-26T23:05:00.763Z,16.80
2022-07-26T23:07:36.642Z,16.70
2022-07-26T23:10:13.675Z,16.70
2022-07-26T23:12:45.340Z,16.70
2022-07-26T23:15:14.823Z,16.80
2022-07-26T23:17:41.889Z,16.80
2022-07-26T23:20:24.102Z,16.80
2022-07-26T23:22:54.866Z,16.80
2022-07-26T23:25:24.055Z,16.80
2022-07-26T23:27:52.473Z,16.70
2022-07-26T23:30:28.502Z,16.80
2022-07-26T23:32:57.980Z,16.60
2022-07-26T23:35:25.951Z,16.50
2022-07-26T23:37:56.243Z,16.60
2022-07-26T23:40:25.751Z,16.60
2022-07-26T23:42:55.254Z,16.60
2022-07-26T23:45:25.534Z,16.40
2022-07-26T23:47:55.901Z,16.40
2022-07-26T23:50:32.530Z,16.30
2022-07-26T23:53:00.590Z,16.30
2022-07-26T23:55:34.200Z,16.30
2022-07-26T23:58:06.229Z,16.40
